sensor_id;sensor_type;location;lat;lon;timestamp;P1;durP1;ratioP1;P2;durP2;ratioP2
35488;SDS011;21602;55.670;37.578;2023-09-12T00:00:00;25.98;;;18.73;;
35488;SDS011;21602;55.670;37.578;2023-09-12T00:02:37;29.40;;;19.90;;
35488;SDS011;21602;55.670;37.578;2023-09-12T00:05:04;32.35;;;20.52;;
35488;SDS011;21602;55.670;37.578;2023-09-12T00:07:31;35.08;;;20.20;;
35488;SDS011;21602;55.670;37.578;2023-09-12T00:09:57;29.02;;;20.25;;
35488;SDS011;21602;55.670;37.578;2023-09-12T00:12:23;32.90;;;20.05;;
35488;SDS011;21602;55.670;37.578;2023-09-12T00:14:52;28.60;;;19.00;;
35488;SDS011;21602;55.670;37.578;2023-09-12T00:17:19;27.98;;;19.63;;
35488;SDS011;21602;55.670;37.578;2023-09-12T00:19:44;33.88;;;20.95;;
35488;SDS011;21602;55.670;37.578;2023-09-12T00:22:10;30.17;;;20.67;;
35488;SDS011;21602;55.670;37.578;2023-09-12T00:24:37;29.10;;;18.55;;
35488;SDS011;21602;55.670;37.578;2023-09-12T00:27:03;32.28;;;20.25;;
35488;SDS011;21602;55.670;37.578;2023-09-12T00:29:30;32.25;;;20.35;;
35488;SDS011;21602;55.670;37.578;2023-09-12T00:31:56;24.67;;;18.95;;
35488;SDS011;21602;55.670;37.578;2023-09-12T00:34:21;26.50;;;19.63;;
35488;SDS011;21602;55.670;37.578;2023-09-12T00:36:47;31.08;;;20.20;;
35488;SDS011;21602;55.670;37.578;2023-09-12T00:39:13;35.42;;;20.75;;
35488;SDS011;21602;55.670;37.578;2023-09-12T00:41:40;32.78;;;19.15;;
35488;SDS011;21602;55.670;37.578;2023-09-12T00:44:06;34.97;;;21.45;;
35488;SDS011;21602;55.670;37.578;2023-09-12T00:46:32;31.25;;;20.25;;
35488;SDS011;21602;55.670;37.578;2023-09-12T00:48:58;28.13;;;19.35;;
35488;SDS011;21602;55.670;37.578;2023-09-12T00:51:25;33.55;;;21.48;;
35488;SDS011;21602;55.670;37.578;2023-09-12T00:53:51;29.83;;;20.27;;
35488;SDS011;21602;55.670;37.578;2023-09-12T00:56:19;28.60;;;20.27;;
35488;SDS011;21602;55.670;37.578;2023-09-12T00:58:45;30.85;;;21.52;;
35488;SDS011;21602;55.670;37.578;2023-09-12T01:01:11;35.90;;;22.05;;
35488;SDS011;21602;55.670;37.578;2023-09-12T01:03:37;30.70;;;20.65;;
35488;SDS011;21602;55.670;37.578;2023-09-12T01:06:04;29.00;;;20.58;;
35488;SDS011;21602;55.670;37.578;2023-09-12T01:10:58;33.75;;;22.23;;
35488;SDS011;21602;55.670;37.578;2023-09-12T01:13:24;32.53;;;20.15;;
35488;SDS011;21602;55.670;37.578;2023-09-12T01:15:50;31.77;;;20.52;;
35488;SDS011;21602;55.670;37.578;2023-09-12T01:18:16;32.33;;;21.55;;
35488;SDS011;21602;55.670;37.578;2023-09-12T01:20:42;33.20;;;21.90;;
35488;SDS011;21602;55.670;37.578;2023-09-12T01:29:06;40.33;;;21.85;;
35488;SDS011;21602;55.670;37.578;2023-09-12T01:31:33;33.80;;;21.60;;
35488;SDS011;21602;55.670;37.578;2023-09-12T01:34:12;35.08;;;22.15;;
35488;SDS011;21602;55.670;37.578;2023-09-12T01:36:38;38.92;;;23.20;;
35488;SDS011;21602;55.670;37.578;2023-09-12T01:39:04;37.30;;;23.50;;
35488;SDS011;21602;55.670;37.578;2023-09-12T01:41:31;49.35;;;27.17;;
35488;SDS011;21602;55.670;37.578;2023-09-12T01:44:00;42.60;;;25.23;;
35488;SDS011;21602;55.670;37.578;2023-09-12T01:48:55;40.55;;;25.35;;
35488;SDS011;21602;55.670;37.578;2023-09-12T01:51:23;40.92;;;27.20;;
35488;SDS011;21602;55.670;37.578;2023-09-12T01:53:50;41.15;;;26.38;;
35488;SDS011;21602;55.670;37.578;2023-09-12T01:56:17;40.28;;;26.30;;
35488;SDS011;21602;55.670;37.578;2023-09-12T01:58:44;40.10;;;24.57;;
35488;SDS011;21602;55.670;37.578;2023-09-12T02:01:11;42.75;;;24.05;;
35488;SDS011;21602;55.670;37.578;2023-09-12T02:03:38;45.78;;;27.10;;
35488;SDS011;21602;55.670;37.578;2023-09-12T02:06:04;44.38;;;26.38;;
35488;SDS011;21602;55.670;37.578;2023-09-12T02:08:30;38.72;;;26.38;;
35488;SDS011;21602;55.670;37.578;2023-09-12T02:10:55;40.13;;;25.50;;
35488;SDS011;21602;55.670;37.578;2023-09-12T02:13:22;37.20;;;25.23;;
35488;SDS011;21602;55.670;37.578;2023-09-12T02:15:48;36.20;;;23.98;;
35488;SDS011;21602;55.670;37.578;2023-09-12T02:18:14;43.33;;;26.70;;
35488;SDS011;21602;55.670;37.578;2023-09-12T02:20:41;41.05;;;27.13;;
35488;SDS011;21602;55.670;37.578;2023-09-12T02:23:10;40.58;;;25.75;;
35488;SDS011;21602;55.670;37.578;2023-09-12T02:25:36;36.33;;;24.95;;
35488;SDS011;21602;55.670;37.578;2023-09-12T02:28:02;45.10;;;25.65;;
35488;SDS011;21602;55.670;37.578;2023-09-12T02:30:28;35.53;;;24.95;;
35488;SDS011;21602;55.670;37.578;2023-09-12T02:32:54;40.25;;;25.10;;
35488;SDS011;21602;55.670;37.578;2023-09-12T02:35:22;42.78;;;24.50;;
35488;SDS011;21602;55.670;37.578;2023-09-12T02:37:48;36.72;;;24.35;;
35488;SDS011;21602;55.670;37.578;2023-09-12T02:40:14;40.10;;;25.33;;
35488;SDS011;21602;55.670;37.578;2023-09-12T02:42:41;37.00;;;24.48;;
35488;SDS011;21602;55.670;37.578;2023-09-12T02:45:07;38.35;;;24.88;;
35488;SDS011;21602;55.670;37.578;2023-09-12T02:47:33;39.42;;;25.55;;
35488;SDS011;21602;55.670;37.578;2023-09-12T02:49:59;42.58;;;24.92;;
35488;SDS011;21602;55.670;37.578;2023-09-12T02:52:25;36.00;;;25.02;;
35488;SDS011;21602;55.670;37.578;2023-09-12T02:54:51;40.15;;;24.77;;
35488;SDS011;21602;55.670;37.578;2023-09-12T02:57:16;38.65;;;25.48;;
35488;SDS011;21602;55.670;37.578;2023-09-12T02:59:42;35.92;;;24.88;;
35488;SDS011;21602;55.670;37.578;2023-09-12T03:02:08;38.63;;;24.55;;
35488;SDS011;21602;55.670;37.578;2023-09-12T03:04:34;35.28;;;25.02;;
35488;SDS011;21602;55.670;37.578;2023-09-12T03:07:01;36.25;;;23.10;;
35488;SDS011;21602;55.670;37.578;2023-09-12T03:09:27;39.28;;;24.35;;
35488;SDS011;21602;55.670;37.578;2023-09-12T03:11:53;37.45;;;23.30;;
35488;SDS011;21602;55.670;37.578;2023-09-12T03:14:19;38.80;;;24.50;;
35488;SDS011;21602;55.670;37.578;2023-09-12T03:16:45;35.83;;;23.13;;
35488;SDS011;21602;55.670;37.578;2023-09-12T03:19:12;48.85;;;25.20;;
35488;SDS011;21602;55.670;37.578;2023-09-12T03:21:38;40.95;;;24.52;;
35488;SDS011;21602;55.670;37.578;2023-09-12T03:24:04;37.72;;;23.63;;
35488;SDS011;21602;55.670;37.578;2023-09-12T03:26:33;37.03;;;24.35;;
35488;SDS011;21602;55.670;37.578;2023-09-12T03:28:59;38.90;;;24.65;;
35488;SDS011;21602;55.670;37.578;2023-09-12T03:31:26;39.67;;;25.05;;
35488;SDS011;21602;55.670;37.578;2023-09-12T03:33:54;39.05;;;24.60;;
35488;SDS011;21602;55.670;37.578;2023-09-12T03:36:20;45.70;;;26.05;;
35488;SDS011;21602;55.670;37.578;2023-09-12T03:38:46;44.95;;;24.50;;
35488;SDS011;21602;55.670;37.578;2023-09-12T03:41:13;35.55;;;23.23;;
35488;SDS011;21602;55.670;37.578;2023-09-12T03:43:39;34.47;;;23.15;;
35488;SDS011;21602;55.670;37.578;2023-09-12T03:46:05;41.97;;;23.65;;
35488;SDS011;21602;55.670;37.578;2023-09-12T03:48:31;39.88;;;24.05;;
35488;SDS011;21602;55.670;37.578;2023-09-12T03:50:58;38.80;;;24.63;;
35488;SDS011;21602;55.670;37.578;2023-09-12T03:53:24;37.90;;;24.05;;
35488;SDS011;21602;55.670;37.578;2023-09-12T03:55:52;38.55;;;24.17;;
35488;SDS011;21602;55.670;37.578;2023-09-12T03:58:18;40.78;;;23.42;;
35488;SDS011;21602;55.670;37.578;2023-09-12T04:00:44;32.13;;;21.80;;
35488;SDS011;21602;55.670;37.578;2023-09-12T04:03:11;37.85;;;25.33;;
35488;SDS011;21602;55.670;37.578;2023-09-12T04:05:37;35.78;;;23.92;;
35488;SDS011;21602;55.670;37.578;2023-09-12T04:08:03;37.20;;;24.30;;
35488;SDS011;21602;55.670;37.578;2023-09-12T04:10:31;37.53;;;23.42;;
35488;SDS011;21602;55.670;37.578;2023-09-12T04:12:58;40.95;;;24.95;;
35488;SDS011;21602;55.670;37.578;2023-09-12T04:15:23;43.92;;;24.15;;
35488;SDS011;21602;55.670;37.578;2023-09-12T04:17:49;32.30;;;22.42;;
35488;SDS011;21602;55.670;37.578;2023-09-12T04:20:15;34.47;;;23.58;;
35488;SDS011;21602;55.670;37.578;2023-09-12T04:22:42;35.15;;;23.00;;
35488;SDS011;21602;55.670;37.578;2023-09-12T04:25:08;38.53;;;24.02;;
35488;SDS011;21602;55.670;37.578;2023-09-12T04:27:34;35.00;;;23.50;;
35488;SDS011;21602;55.670;37.578;2023-09-12T04:30:00;38.83;;;23.75;;
35488;SDS011;21602;55.670;37.578;2023-09-12T04:32:31;34.20;;;23.00;;
35488;SDS011;21602;55.670;37.578;2023-09-12T04:34:58;36.42;;;22.95;;
35488;SDS011;21602;55.670;37.578;2023-09-12T04:37:24;36.95;;;23.50;;
35488;SDS011;21602;55.670;37.578;2023-09-12T04:39:50;32.38;;;24.23;;
35488;SDS011;21602;55.670;37.578;2023-09-12T04:42:17;34.67;;;22.83;;
35488;SDS011;21602;55.670;37.578;2023-09-12T04:44:43;36.92;;;24.40;;
35488;SDS011;21602;55.670;37.578;2023-09-12T04:47:09;35.28;;;23.35;;
35488;SDS011;21602;55.670;37.578;2023-09-12T04:49:39;34.80;;;23.55;;
35488;SDS011;21602;55.670;37.578;2023-09-12T04:52:05;36.97;;;22.92;;
35488;SDS011;21602;55.670;37.578;2023-09-12T04:54:35;34.78;;;22.90;;
35488;SDS011;21602;55.670;37.578;2023-09-12T04:57:02;38.88;;;23.73;;
35488;SDS011;21602;55.670;37.578;2023-09-12T04:59:33;31.63;;;23.23;;
35488;SDS011;21602;55.670;37.578;2023-09-12T05:02:00;40.83;;;24.60;;
35488;SDS011;21602;55.670;37.578;2023-09-12T05:04:31;36.35;;;23.13;;
35488;SDS011;21602;55.670;37.578;2023-09-12T05:07:01;39.78;;;23.20;;
35488;SDS011;21602;55.670;37.578;2023-09-12T05:09:37;39.63;;;26.55;;
35488;SDS011;21602;55.670;37.578;2023-09-12T05:12:05;36.38;;;24.77;;
35488;SDS011;21602;55.670;37.578;2023-09-12T05:14:32;38.83;;;24.88;;
35488;SDS011;21602;55.670;37.578;2023-09-12T05:16:59;39.08;;;24.35;;
35488;SDS011;21602;55.670;37.578;2023-09-12T05:19:27;42.88;;;24.58;;
35488;SDS011;21602;55.670;37.578;2023-09-12T05:21:55;31.92;;;22.80;;
35488;SDS011;21602;55.670;37.578;2023-09-12T05:24:29;32.38;;;21.88;;
35488;SDS011;21602;55.670;37.578;2023-09-12T05:26:55;35.70;;;23.90;;
35488;SDS011;21602;55.670;37.578;2023-09-12T05:29:24;38.97;;;26.45;;
35488;SDS011;21602;55.670;37.578;2023-09-12T05:31:50;33.05;;;23.85;;
35488;SDS011;21602;55.670;37.578;2023-09-12T05:34:19;34.10;;;23.30;;
35488;SDS011;21602;55.670;37.578;2023-09-12T05:36:49;33.42;;;25.55;;
35488;SDS011;21602;55.670;37.578;2023-09-12T05:39:15;32.58;;;24.17;;
35488;SDS011;21602;55.670;37.578;2023-09-12T05:41:41;33.83;;;23.02;;
35488;SDS011;21602;55.670;37.578;2023-09-12T05:44:07;37.45;;;26.50;;
35488;SDS011;21602;55.670;37.578;2023-09-12T05:46:33;36.20;;;26.00;;
35488;SDS011;21602;55.670;37.578;2023-09-12T05:48:59;46.63;;;27.13;;
35488;SDS011;21602;55.670;37.578;2023-09-12T05:51:25;35.08;;;24.33;;
35488;SDS011;21602;55.670;37.578;2023-09-12T05:53:51;31.13;;;22.33;;
35488;SDS011;21602;55.670;37.578;2023-09-12T05:56:16;34.90;;;24.17;;
35488;SDS011;21602;55.670;37.578;2023-09-12T05:58:43;39.28;;;25.75;;
35488;SDS011;21602;55.670;37.578;2023-09-12T06:01:09;36.95;;;24.52;;
35488;SDS011;21602;55.670;37.578;2023-09-12T06:03:35;31.60;;;24.42;;
35488;SDS011;21602;55.670;37.578;2023-09-12T06:06:03;36.58;;;25.40;;
35488;SDS011;21602;55.670;37.578;2023-09-12T06:08:29;31.48;;;23.92;;
35488;SDS011;21602;55.670;37.578;2023-09-12T06:10:55;44.33;;;25.58;;
35488;SDS011;21602;55.670;37.578;2023-09-12T06:13:24;33.22;;;24.50;;
35488;SDS011;21602;55.670;37.578;2023-09-12T06:15:50;34.45;;;24.50;;
35488;SDS011;21602;55.670;37.578;2023-09-12T06:18:16;33.13;;;24.05;;
35488;SDS011;21602;55.670;37.578;2023-09-12T06:20:45;32.38;;;22.48;;
35488;SDS011;21602;55.670;37.578;2023-09-12T06:23:10;39.85;;;24.33;;
35488;SDS011;21602;55.670;37.578;2023-09-12T06:25:39;29.75;;;23.27;;
35488;SDS011;21602;55.670;37.578;2023-09-12T06:28:08;35.33;;;23.25;;
35488;SDS011;21602;55.670;37.578;2023-09-12T06:30:35;33.95;;;23.92;;
35488;SDS011;21602;55.670;37.578;2023-09-12T06:33:04;35.45;;;25.30;;
35488;SDS011;21602;55.670;37.578;2023-09-12T06:35:33;34.40;;;23.13;;
35488;SDS011;21602;55.670;37.578;2023-09-12T06:37:58;34.17;;;25.98;;
35488;SDS011;21602;55.670;37.578;2023-09-12T06:40:24;34.88;;;23.77;;
35488;SDS011;21602;55.670;37.578;2023-09-12T06:45:20;31.40;;;21.83;;
35488;SDS011;21602;55.670;37.578;2023-09-12T06:47:45;32.60;;;23.77;;
35488;SDS011;21602;55.670;37.578;2023-09-12T06:50:11;39.47;;;23.42;;
35488;SDS011;21602;55.670;37.578;2023-09-12T06:52:37;31.30;;;21.55;;
35488;SDS011;21602;55.670;37.578;2023-09-12T06:55:03;27.30;;;21.00;;
35488;SDS011;21602;55.670;37.578;2023-09-12T06:57:29;35.60;;;23.23;;
35488;SDS011;21602;55.670;37.578;2023-09-12T06:59:55;29.63;;;20.98;;
35488;SDS011;21602;55.670;37.578;2023-09-12T07:02:21;32.70;;;22.25;;
35488;SDS011;21602;55.670;37.578;2023-09-12T07:04:47;36.80;;;21.70;;
35488;SDS011;21602;55.670;37.578;2023-09-12T07:07:13;30.77;;;21.80;;
35488;SDS011;21602;55.670;37.578;2023-09-12T07:09:38;32.20;;;22.10;;
35488;SDS011;21602;55.670;37.578;2023-09-12T07:12:04;30.83;;;22.27;;
35488;SDS011;21602;55.670;37.578;2023-09-12T07:14:31;35.97;;;24.10;;
35488;SDS011;21602;55.670;37.578;2023-09-12T07:16:57;30.35;;;22.58;;
35488;SDS011;21602;55.670;37.578;2023-09-12T07:19:23;35.65;;;27.48;;
35488;SDS011;21602;55.670;37.578;2023-09-12T07:21:49;30.80;;;22.80;;
35488;SDS011;21602;55.670;37.578;2023-09-12T07:24:16;38.45;;;23.02;;
35488;SDS011;21602;55.670;37.578;2023-09-12T07:26:45;29.52;;;22.85;;
35488;SDS011;21602;55.670;37.578;2023-09-12T07:29:12;31.40;;;21.90;;
35488;SDS011;21602;55.670;37.578;2023-09-12T07:31:38;30.05;;;21.60;;
35488;SDS011;21602;55.670;37.578;2023-09-12T07:34:04;28.15;;;19.83;;
35488;SDS011;21602;55.670;37.578;2023-09-12T07:36:33;26.75;;;20.27;;
35488;SDS011;21602;55.670;37.578;2023-09-12T07:38:59;24.85;;;19.55;;
35488;SDS011;21602;55.670;37.578;2023-09-12T07:41:25;26.35;;;20.60;;
35488;SDS011;21602;55.670;37.578;2023-09-12T07:43:51;27.08;;;18.67;;
35488;SDS011;21602;55.670;37.578;2023-09-12T07:46:16;22.23;;;17.27;;
35488;SDS011;21602;55.670;37.578;2023-09-12T07:48:42;25.70;;;17.85;;
35488;SDS011;21602;55.670;37.578;2023-09-12T07:51:14;31.00;;;19.13;;
35488;SDS011;21602;55.670;37.578;2023-09-12T07:53:44;24.48;;;17.95;;
35488;SDS011;21602;55.670;37.578;2023-09-12T07:56:09;28.73;;;18.77;;
35488;SDS011;21602;55.670;37.578;2023-09-12T07:58:36;26.33;;;17.77;;
35488;SDS011;21602;55.670;37.578;2023-09-12T08:01:06;25.15;;;18.00;;
35488;SDS011;21602;55.670;37.578;2023-09-12T08:03:33;23.27;;;17.08;;
35488;SDS011;21602;55.670;37.578;2023-09-12T08:06:02;25.90;;;17.20;;
35488;SDS011;21602;55.670;37.578;2023-09-12T08:08:29;23.33;;;16.73;;
35488;SDS011;21602;55.670;37.578;2023-09-12T08:10:56;23.55;;;16.13;;
35488;SDS011;21602;55.670;37.578;2023-09-12T08:13:22;25.35;;;17.77;;
35488;SDS011;21602;55.670;37.578;2023-09-12T08:15:51;26.27;;;17.13;;
35488;SDS011;21602;55.670;37.578;2023-09-12T08:18:18;24.95;;;16.55;;
35488;SDS011;21602;55.670;37.578;2023-09-12T08:20:44;24.95;;;18.42;;
35488;SDS011;21602;55.670;37.578;2023-09-12T08:23:10;19.13;;;15.00;;
35488;SDS011;21602;55.670;37.578;2023-09-12T08:25:39;22.65;;;14.77;;
35488;SDS011;21602;55.670;37.578;2023-09-12T08:28:05;16.33;;;14.43;;
35488;SDS011;21602;55.670;37.578;2023-09-12T08:30:31;22.50;;;17.23;;
35488;SDS011;21602;55.670;37.578;2023-09-12T08:33:02;19.73;;;16.50;;
35488;SDS011;21602;55.670;37.578;2023-09-12T08:35:31;22.42;;;15.10;;
35488;SDS011;21602;55.670;37.578;2023-09-12T08:37:57;22.55;;;17.63;;
35488;SDS011;21602;55.670;37.578;2023-09-12T08:40:26;21.52;;;13.95;;
35488;SDS011;21602;55.670;37.578;2023-09-12T08:42:54;29.50;;;17.23;;
35488;SDS011;21602;55.670;37.578;2023-09-12T08:45:22;21.35;;;16.10;;
35488;SDS011;21602;55.670;37.578;2023-09-12T08:47:53;23.17;;;17.23;;
35488;SDS011;21602;55.670;37.578;2023-09-12T08:50:20;36.13;;;18.40;;
35488;SDS011;21602;55.670;37.578;2023-09-12T08:52:48;20.80;;;16.63;;
35488;SDS011;21602;55.670;37.578;2023-09-12T08:55:14;25.02;;;16.80;;
35488;SDS011;21602;55.670;37.578;2023-09-12T08:57:41;23.23;;;13.07;;
35488;SDS011;21602;55.670;37.578;2023-09-12T09:00:08;19.85;;;15.43;;
35488;SDS011;21602;55.670;37.578;2023-09-12T09:02:39;20.08;;;15.07;;
35488;SDS011;21602;55.670;37.578;2023-09-12T09:05:05;15.20;;;11.70;;
35488;SDS011;21602;55.670;37.578;2023-09-12T09:07:36;16.70;;;13.25;;
35488;SDS011;21602;55.670;37.578;2023-09-12T09:10:03;12.65;;;11.32;;
35488;SDS011;21602;55.670;37.578;2023-09-12T09:12:31;15.23;;;12.88;;
35488;SDS011;21602;55.670;37.578;2023-09-12T09:14:57;15.15;;;11.52;;
35488;SDS011;21602;55.670;37.578;2023-09-12T09:17:24;21.10;;;13.80;;
35488;SDS011;21602;55.670;37.578;2023-09-12T09:19:50;16.60;;;12.57;;
35488;SDS011;21602;55.670;37.578;2023-09-12T09:22:15;19.13;;;13.18;;
35488;SDS011;21602;55.670;37.578;2023-09-12T09:27:10;13.38;;;10.30;;
35488;SDS011;21602;55.670;37.578;2023-09-12T09:29:46;14.75;;;11.02;;
35488;SDS011;21602;55.670;37.578;2023-09-12T09:32:17;17.38;;;13.90;;
35488;SDS011;21602;55.670;37.578;2023-09-12T09:34:47;23.38;;;14.57;;
35488;SDS011;21602;55.670;37.578;2023-09-12T09:37:13;15.27;;;11.95;;
35488;SDS011;21602;55.670;37.578;2023-09-12T09:39:40;17.60;;;11.75;;
35488;SDS011;21602;55.670;37.578;2023-09-12T09:42:09;16.30;;;11.20;;
35488;SDS011;21602;55.670;37.578;2023-09-12T09:44:36;15.27;;;10.60;;
35488;SDS011;21602;55.670;37.578;2023-09-12T09:47:03;16.98;;;13.52;;
35488;SDS011;21602;55.670;37.578;2023-09-12T09:49:32;18.42;;;12.20;;
35488;SDS011;21602;55.670;37.578;2023-09-12T09:52:02;17.52;;;13.40;;
35488;SDS011;21602;55.670;37.578;2023-09-12T09:54:29;19.58;;;14.00;;
35488;SDS011;21602;55.670;37.578;2023-09-12T09:56:56;12.65;;;10.18;;
35488;SDS011;21602;55.670;37.578;2023-09-12T09:59:23;13.18;;;9.77;;
35488;SDS011;21602;55.670;37.578;2023-09-12T10:01:58;13.38;;;10.05;;
35488;SDS011;21602;55.670;37.578;2023-09-12T10:04:26;12.27;;;10.48;;
35488;SDS011;21602;55.670;37.578;2023-09-12T10:06:55;17.17;;;10.07;;
35488;SDS011;21602;55.670;37.578;2023-09-12T10:09:28;15.20;;;10.48;;
35488;SDS011;21602;55.670;37.578;2023-09-12T10:11:55;11.27;;;10.00;;
35488;SDS011;21602;55.670;37.578;2023-09-12T10:14:23;18.08;;;10.90;;
35488;SDS011;21602;55.670;37.578;2023-09-12T10:16:52;19.08;;;10.95;;
35488;SDS011;21602;55.670;37.578;2023-09-12T10:19:26;11.38;;;9.43;;
35488;SDS011;21602;55.670;37.578;2023-09-12T10:24:49;16.45;;;11.13;;
35488;SDS011;21602;55.670;37.578;2023-09-12T10:27:16;16.65;;;10.13;;
35488;SDS011;21602;55.670;37.578;2023-09-12T10:29:44;20.60;;;12.00;;
35488;SDS011;21602;55.670;37.578;2023-09-12T10:32:14;19.30;;;14.18;;
35488;SDS011;21602;55.670;37.578;2023-09-12T10:34:41;14.85;;;10.60;;
35488;SDS011;21602;55.670;37.578;2023-09-12T10:37:11;17.40;;;12.05;;
35488;SDS011;21602;55.670;37.578;2023-09-12T10:39:40;13.75;;;9.07;;
35488;SDS011;21602;55.670;37.578;2023-09-12T10:42:09;21.77;;;13.65;;
35488;SDS011;21602;55.670;37.578;2023-09-12T10:44:38;13.70;;;10.98;;
35488;SDS011;21602;55.670;37.578;2023-09-12T10:47:04;15.57;;;8.95;;
35488;SDS011;21602;55.670;37.578;2023-09-12T10:49:31;9.13;;;8.15;;
35488;SDS011;21602;55.670;37.578;2023-09-12T10:51:57;11.93;;;9.27;;
35488;SDS011;21602;55.670;37.578;2023-09-12T10:54:36;9.55;;;7.97;;
35488;SDS011;21602;55.670;37.578;2023-09-12T10:57:06;9.48;;;7.32;;
35488;SDS011;21602;55.670;37.578;2023-09-12T10:59:33;10.43;;;7.75;;
35488;SDS011;21602;55.670;37.578;2023-09-12T11:04:58;20.08;;;15.20;;
35488;SDS011;21602;55.670;37.578;2023-09-12T11:12:40;12.05;;;9.20;;
35488;SDS011;21602;55.670;37.578;2023-09-12T11:15:06;12.35;;;6.18;;
35488;SDS011;21602;55.670;37.578;2023-09-12T11:17:37;11.77;;;5.93;;
35488;SDS011;21602;55.670;37.578;2023-09-12T11:20:03;9.10;;;6.47;;
35488;SDS011;21602;55.670;37.578;2023-09-12T11:22:39;11.35;;;8.85;;
35488;SDS011;21602;55.670;37.578;2023-09-12T11:25:15;11.45;;;6.35;;
35488;SDS011;21602;55.670;37.578;2023-09-12T11:30:17;11.15;;;8.38;;
35488;SDS011;21602;55.670;37.578;2023-09-12T11:32:48;9.93;;;6.40;;
35488;SDS011;21602;55.670;37.578;2023-09-12T11:35:16;11.63;;;6.00;;
35488;SDS011;21602;55.670;37.578;2023-09-12T11:37:48;13.60;;;8.63;;
35488;SDS011;21602;55.670;37.578;2023-09-12T11:42:42;16.50;;;12.17;;
35488;SDS011;21602;55.670;37.578;2023-09-12T11:45:09;15.43;;;9.32;;
35488;SDS011;21602;55.670;37.578;2023-09-12T11:47:42;16.67;;;10.60;;
35488;SDS011;21602;55.670;37.578;2023-09-12T11:50:09;12.55;;;8.05;;
35488;SDS011;21602;55.670;37.578;2023-09-12T11:53:05;16.02;;;10.65;;
35488;SDS011;21602;55.670;37.578;2023-09-12T11:58:17;13.20;;;5.88;;
35488;SDS011;21602;55.670;37.578;2023-09-12T12:00:49;14.80;;;9.30;;
35488;SDS011;21602;55.670;37.578;2023-09-12T12:03:17;23.38;;;9.38;;
35488;SDS011;21602;55.670;37.578;2023-09-12T12:05:47;7.57;;;6.13;;
35488;SDS011;21602;55.670;37.578;2023-09-12T12:08:14;8.45;;;5.90;;
35488;SDS011;21602;55.670;37.578;2023-09-12T12:10:41;12.20;;;6.38;;
35488;SDS011;21602;55.670;37.578;2023-09-12T12:13:11;12.82;;;9.70;;
35488;SDS011;21602;55.670;37.578;2023-09-12T12:15:42;8.25;;;5.97;;
35488;SDS011;21602;55.670;37.578;2023-09-12T12:18:08;11.13;;;5.25;;
35488;SDS011;21602;55.670;37.578;2023-09-12T12:20:34;11.35;;;6.38;;
35488;SDS011;21602;55.670;37.578;2023-09-12T12:23:01;20.27;;;9.90;;
35488;SDS011;21602;55.670;37.578;2023-09-12T12:25:26;11.65;;;7.85;;
35488;SDS011;21602;55.670;37.578;2023-09-12T12:28:00;9.73;;;6.53;;
35488;SDS011;21602;55.670;37.578;2023-09-12T12:35:22;9.13;;;4.72;;
35488;SDS011;21602;55.670;37.578;2023-09-12T12:37:54;7.50;;;5.85;;
35488;SDS011;21602;55.670;37.578;2023-09-12T12:40:23;6.75;;;4.88;;
35488;SDS011;21602;55.670;37.578;2023-09-12T12:42:51;7.35;;;5.53;;
35488;SDS011;21602;55.670;37.578;2023-09-12T12:45:18;10.68;;;5.57;;
35488;SDS011;21602;55.670;37.578;2023-09-12T12:50:11;8.13;;;5.18;;
35488;SDS011;21602;55.670;37.578;2023-09-12T12:52:39;12.15;;;6.53;;
35488;SDS011;21602;55.670;37.578;2023-09-12T12:55:06;17.92;;;12.45;;
35488;SDS011;21602;55.670;37.578;2023-09-12T12:57:41;14.68;;;9.45;;
35488;SDS011;21602;55.670;37.578;2023-09-12T13:00:12;11.60;;;8.18;;
35488;SDS011;21602;55.670;37.578;2023-09-12T13:02:40;12.07;;;8.82;;
35488;SDS011;21602;55.670;37.578;2023-09-12T13:05:21;9.93;;;8.25;;
35488;SDS011;21602;55.670;37.578;2023-09-12T13:07:52;9.55;;;7.47;;
35488;SDS011;21602;55.670;37.578;2023-09-12T13:10:18;11.25;;;7.13;;
35488;SDS011;21602;55.670;37.578;2023-09-12T13:12:45;12.60;;;7.95;;
35488;SDS011;21602;55.670;37.578;2023-09-12T13:15:12;11.15;;;6.18;;
35488;SDS011;21602;55.670;37.578;2023-09-12T13:17:38;14.73;;;6.68;;
35488;SDS011;21602;55.670;37.578;2023-09-12T13:20:05;8.80;;;6.50;;
35488;SDS011;21602;55.670;37.578;2023-09-12T13:22:34;10.93;;;8.07;;
35488;SDS011;21602;55.670;37.578;2023-09-12T13:25:13;10.18;;;5.75;;
35488;SDS011;21602;55.670;37.578;2023-09-12T13:30:44;8.15;;;5.43;;
35488;SDS011;21602;55.670;37.578;2023-09-12T13:33:11;9.68;;;5.80;;
35488;SDS011;21602;55.670;37.578;2023-09-12T13:35:37;12.13;;;5.32;;
35488;SDS011;21602;55.670;37.578;2023-09-12T13:38:03;8.52;;;5.15;;
35488;SDS011;21602;55.670;37.578;2023-09-12T13:40:40;10.40;;;6.40;;
35488;SDS011;21602;55.670;37.578;2023-09-12T13:43:07;7.15;;;5.00;;
35488;SDS011;21602;55.670;37.578;2023-09-12T13:45:34;7.32;;;5.32;;
35488;SDS011;21602;55.670;37.578;2023-09-12T13:48:01;6.00;;;4.68;;
35488;SDS011;21602;55.670;37.578;2023-09-12T13:50:27;12.60;;;6.37;;
35488;SDS011;21602;55.670;37.578;2023-09-12T13:52:55;8.05;;;7.13;;
35488;SDS011;21602;55.670;37.578;2023-09-12T13:55:22;16.38;;;9.48;;
35488;SDS011;21602;55.670;37.578;2023-09-12T13:57:48;10.63;;;5.38;;
35488;SDS011;21602;55.670;37.578;2023-09-12T14:00:14;9.45;;;5.50;;
35488;SDS011;21602;55.670;37.578;2023-09-12T14:02:40;8.70;;;5.40;;
35488;SDS011;21602;55.670;37.578;2023-09-12T14:05:06;9.45;;;6.15;;
35488;SDS011;21602;55.670;37.578;2023-09-12T14:07:32;14.43;;;7.32;;
35488;SDS011;21602;55.670;37.578;2023-09-12T14:09:58;9.10;;;5.53;;
35488;SDS011;21602;55.670;37.578;2023-09-12T14:12:24;9.88;;;6.45;;
35488;SDS011;21602;55.670;37.578;2023-09-12T14:14:53;14.07;;;9.75;;
35488;SDS011;21602;55.670;37.578;2023-09-12T14:17:20;12.98;;;7.47;;
35488;SDS011;21602;55.670;37.578;2023-09-12T14:19:46;8.18;;;4.75;;
35488;SDS011;21602;55.670;37.578;2023-09-12T14:22:12;11.90;;;8.07;;
35488;SDS011;21602;55.670;37.578;2023-09-12T14:24:38;10.45;;;7.10;;
35488;SDS011;21602;55.670;37.578;2023-09-12T14:27:04;8.18;;;4.95;;
35488;SDS011;21602;55.670;37.578;2023-09-12T14:29:30;16.30;;;7.88;;
35488;SDS011;21602;55.670;37.578;2023-09-12T14:31:57;61.17;;;11.40;;
35488;SDS011;21602;55.670;37.578;2023-09-12T14:34:26;15.80;;;6.43;;
35488;SDS011;21602;55.670;37.578;2023-09-12T14:36:53;10.02;;;6.25;;
35488;SDS011;21602;55.670;37.578;2023-09-12T14:39:21;11.60;;;5.53;;
35488;SDS011;21602;55.670;37.578;2023-09-12T14:41:47;13.50;;;5.70;;
35488;SDS011;21602;55.670;37.578;2023-09-12T14:44:18;11.43;;;4.78;;
35488;SDS011;21602;55.670;37.578;2023-09-12T14:46:44;7.72;;;5.00;;
35488;SDS011;21602;55.670;37.578;2023-09-12T14:49:10;8.82;;;4.95;;
35488;SDS011;21602;55.670;37.578;2023-09-12T14:51:37;8.25;;;5.55;;
35488;SDS011;21602;55.670;37.578;2023-09-12T14:54:03;12.43;;;6.28;;
35488;SDS011;21602;55.670;37.578;2023-09-12T14:56:29;6.85;;;5.20;;
35488;SDS011;21602;55.670;37.578;2023-09-12T14:58:56;15.05;;;5.38;;